sensor_id;sensor_type;location;lat;lon;timestamp;pressure;altitude;pressure_sealevel;temperature;humidity
11444;BME280;5778;47.856;12.154;2023-02-22T00:00:20;96251.59;;;2.96;100.00
11444;BME280;5778;47.856;12.154;2023-02-22T00:02:54;96261.25;;;3.02;100.00
11444;BME280;5778;47.856;12.154;2023-02-22T00:05:25;96255.81;;;3.03;100.00
11444;BME280;5778;47.856;12.154;2023-02-22T00:07:55;96256.25;;;2.87;100.00
11444;BME280;5778;47.856;12.154;2023-02-22T00:10:25;96258.06;;;2.87;100.00
11444;BME280;5778;47.856;12.154;2023-02-22T00:12:54;96264.66;;;3.09;100.00
11444;BME280;5778;47.856;12.154;2023-02-22T00:15:23;96255.56;;;3.11;100.00
11444;BME280;5778;47.856;12.154;2023-02-22T00:17:52;96247.56;;;2.80;100.00
11444;BME280;5778;47.856;12.154;2023-02-22T00:20:22;96245.56;;;2.76;100.00
11444;BME280;5778;47.856;12.154;2023-02-22T00:22:49;96243.75;;;2.70;100.00
11444;BME280;5778;47.856;12.154;2023-02-22T00:25:21;96250.47;;;2.40;100.00
11444;BME280;5778;47.856;12.154;2023-02-22T00:27:50;96243.59;;;2.45;100.00
11444;BME280;5778;47.856;12.154;2023-02-22T00:30:20;96249.47;;;2.41;100.00
11444;BME280;5778;47.856;12.154;2023-02-22T00:32:49;96255.50;;;2.22;100.00
11444;BME280;5778;47.856;12.154;2023-02-22T00:35:19;96244.59;;;2.38;100.00
11444;BME280;5778;47.856;12.154;2023-02-22T00:37:47;96257.53;;;2.39;100.00
11444;BME280;5778;47.856;12.154;2023-02-22T00:40:17;96259.75;;;2.10;100.00
11444;BME280;5778;47.856;12.154;2023-02-22T00:42:46;96248.44;;;2.16;100.00
11444;BME280;5778;47.856;12.154;2023-02-22T00:45:16;96256.34;;;2.29;100.00
11444;BME280;5778;47.856;12.154;2023-02-22T00:47:44;96258.94;;;2.42;100.00
11444;BME280;5778;47.856;12.154;2023-02-22T00:50:14;96252.69;;;2.56;100.00
11444;BME280;5778;47.856;12.154;2023-02-22T00:52:41;96262.56;;;2.54;100.00
11444;BME280;5778;47.856;12.154;2023-02-22T00:55:14;96255.91;;;2.32;100.00
11444;BME280;5778;47.856;12.154;2023-02-22T00:57:42;96263.78;;;2.32;100.00
11444;BME280;5778;47.856;12.154;2023-02-22T01:00:18;96258.94;;;2.42;100.00
11444;BME280;5778;47.856;12.154;2023-02-22T01:02:46;96249.66;;;2.33;100.00
11444;BME280;5778;47.856;12.154;2023-02-22T01:05:17;96254.91;;;2.26;100.00
11444;BME280;5778;47.856;12.154;2023-02-22T01:07:44;96248.47;;;2.29;100.00
11444;BME280;5778;47.856;12.154;2023-02-22T01:10:15;96248.03;;;2.12;100.00
11444;BME280;5778;47.856;12.154;2023-02-22T01:12:42;96245.22;;;2.07;100.00
11444;BME280;5778;47.856;12.154;2023-02-22T01:15:10;96244.22;;;2.21;100.00
11444;BME280;5778;47.856;12.154;2023-02-22T01:17:40;96246.03;;;2.27;100.00
11444;BME280;5778;47.856;12.154;2023-02-22T01:20:11;96246.03;;;2.21;100.00
11444;BME280;5778;47.856;12.154;2023-02-22T01:22:41;96246.25;;;2.13;100.00
11444;BME280;5778;47.856;12.154;2023-02-22T01:25:09;96243.19;;;1.96;100.00
11444;BME280;5778;47.856;12.154;2023-02-22T01:27:37;96238.97;;;1.95;100.00
11444;BME280;5778;47.856;12.154;2023-02-22T01:30:06;96240.16;;;1.73;100.00
11444;BME280;5778;47.856;12.154;2023-02-22T01:32:34;96230.28;;;1.69;100.00
11444;BME280;5778;47.856;12.154;2023-02-22T01:35:06;96231.06;;;1.76;100.00
11444;BME280;5778;47.856;12.154;2023-02-22T01:37:34;96229.84;;;1.59;100.00
11444;BME280;5778;47.856;12.154;2023-02-22T01:40:02;96225.78;;;1.63;100.00
11444;BME280;5778;47.856;12.154;2023-02-22T01:42:32;96233.88;;;1.68;100.00
11444;BME280;5778;47.856;12.154;2023-02-22T01:48:07;96222.41;;;1.69;100.00
11444;BME280;5778;47.856;12.154;2023-02-22T01:50:39;96217.16;;;1.69;100.00
11444;BME280;5778;47.856;12.154;2023-02-22T01:53:08;96220.72;;;1.48;100.00
11444;BME280;5778;47.856;12.154;2023-02-22T01:55:37;96218.31;;;1.47;100.00
11444;BME280;5778;47.856;12.154;2023-02-22T01:58:05;96226.16;;;1.47;100.00
11444;BME280;5778;47.856;12.154;2023-02-22T02:00:33;96221.78;;;1.54;100.00
11444;BME280;5778;47.856;12.154;2023-02-22T02:03:05;96217.75;;;1.64;100.00
11444;BME280;5778;47.856;12.154;2023-02-22T02:05:37;96213.75;;;1.75;100.00
11444;BME280;5778;47.856;12.154;2023-02-22T02:08:13;96207.50;;;1.76;100.00
11444;BME280;5778;47.856;12.154;2023-02-22T02:10:42;96204.22;;;1.48;100.00
11444;BME280;5778;47.856;12.154;2023-02-22T02:13:10;96207.00;;;1.40;100.00
11444;BME280;5778;47.856;12.154;2023-02-22T02:15:38;96209.44;;;1.41;100.00
11444;BME280;5778;47.856;12.154;2023-02-22T02:18:09;96197.34;;;1.47;100.00
11444;BME280;5778;47.856;12.154;2023-02-22T02:20:47;96202.00;;;1.64;100.00
11444;BME280;5778;47.856;12.154;2023-02-22T02:23:37;96201.63;;;1.67;100.00
11444;BME280;5778;47.856;12.154;2023-02-22T02:26:32;96191.13;;;1.61;100.00
11444;BME280;5778;47.856;12.154;2023-02-22T02:32:20;96182.06;;;1.50;100.00
11444;BME280;5778;47.856;12.154;2023-02-22T02:34:50;96183.19;;;1.22;100.00
11444;BME280;5778;47.856;12.154;2023-02-22T02:37:29;96179.13;;;1.13;100.00
11444;BME280;5778;47.856;12.154;2023-02-22T02:40:08;96182.72;;;1.05;100.00
11444;BME280;5778;47.856;12.154;2023-02-22T02:42:40;96171.69;;;1.16;100.00
11444;BME280;5778;47.856;12.154;2023-02-22T02:45:13;96171.13;;;1.34;100.00
11444;BME280;5778;47.856;12.154;2023-02-22T02:47:46;96165.03;;;1.14;100.00
11444;BME280;5778;47.856;12.154;2023-02-22T02:50:19;96169.84;;;1.04;100.00
11444;BME280;5778;47.856;12.154;2023-02-22T02:52:51;96160.38;;;1.03;100.00
11444;BME280;5778;47.856;12.154;2023-02-22T02:55:19;96166.22;;;1.11;100.00
11444;BME280;5778;47.856;12.154;2023-02-22T02:57:47;96160.59;;;1.08;100.00
11444;BME280;5778;47.856;12.154;2023-02-22T03:00:19;96160.81;;;1.13;100.00
11444;BME280;5778;47.856;12.154;2023-02-22T03:03:08;96149.91;;;1.09;100.00
11444;BME280;5778;47.856;12.154;2023-02-22T03:06:10;96151.34;;;1.12;100.00
11444;BME280;5778;47.856;12.154;2023-02-22T03:08:45;96151.16;;;1.13;100.00
11444;BME280;5778;47.856;12.154;2023-02-22T03:11:17;96154.19;;;1.17;100.00
11444;BME280;5778;47.856;12.154;2023-02-22T03:13:50;96149.38;;;1.27;100.00
11444;BME280;5778;47.856;12.154;2023-02-22T03:16:28;96142.72;;;1.31;100.00
11444;BME280;5778;47.856;12.154;2023-02-22T03:19:06;96139.91;;;1.26;100.00
11444;BME280;5778;47.856;12.154;2023-02-22T03:21:43;96141.09;;;1.23;100.00
11444;BME280;5778;47.856;12.154;2023-02-22T03:24:16;96134.66;;;1.26;100.00
11444;BME280;5778;47.856;12.154;2023-02-22T03:26:50;96128.38;;;1.14;100.00
11444;BME280;5778;47.856;12.154;2023-02-22T03:29:21;96130.59;;;1.17;100.00
11444;BME280;5778;47.856;12.154;2023-02-22T03:31:53;96130.16;;;0.94;100.00
11444;BME280;5778;47.856;12.154;2023-02-22T03:34:33;96128.94;;;0.90;100.00
11444;BME280;5778;47.856;12.154;2023-02-22T03:37:07;96129.13;;;0.88;100.00
11444;BME280;5778;47.856;12.154;2023-02-22T03:39:41;96125.06;;;0.86;100.00
11444;BME280;5778;47.856;12.154;2023-02-22T03:42:13;96126.75;;;1.00;100.00
11444;BME280;5778;47.856;12.154;2023-02-22T03:44:42;96126.56;;;1.01;100.00
11444;BME280;5778;47.856;12.154;2023-02-22T03:47:17;96125.72;;;1.01;100.00
11444;BME280;5778;47.856;12.154;2023-02-22T03:49:54;96120.91;;;1.04;100.00
11444;BME280;5778;47.856;12.154;2023-02-22T03:52:24;96129.94;;;0.89;100.00
11444;BME280;5778;47.856;12.154;2023-02-22T03:54:52;96129.38;;;1.00;100.00
11444;BME280;5778;47.856;12.154;2023-02-22T03:57:25;96126.94;;;0.98;100.00
11444;BME280;5778;47.856;12.154;2023-02-22T04:00:04;96138.19;;;0.92;100.00
11444;BME280;5778;47.856;12.154;2023-02-22T04:02:39;96140.00;;;0.92;100.00
11444;BME280;5778;47.856;12.154;2023-02-22T04:05:12;96139.63;;;1.08;100.00
11444;BME280;5778;47.856;12.154;2023-02-22T04:07:40;96139.47;;;1.22;100.00
11444;BME280;5778;47.856;12.154;2023-02-22T04:10:09;96147.53;;;1.27;100.00
11444;BME280;5778;47.856;12.154;2023-02-22T04:12:37;96137.69;;;1.29;100.00
11444;BME280;5778;47.856;12.154;2023-02-22T04:15:07;96147.75;;;1.32;100.00
11444;BME280;5778;47.856;12.154;2023-02-22T04:17:35;96147.56;;;1.34;100.00
11444;BME280;5778;47.856;12.154;2023-02-22T04:20:04;96143.72;;;1.36;100.00
11444;BME280;5778;47.856;12.154;2023-02-22T04:22:48;96145.16;;;1.52;100.00
11444;BME280;5778;47.856;12.154;2023-02-22T04:25:19;96145.19;;;1.65;100.00
11444;BME280;5778;47.856;12.154;2023-02-22T04:27:46;96145.97;;;1.72;100.00
11444;BME280;5778;47.856;12.154;2023-02-22T04:30:16;96142.75;;;1.63;100.00
11444;BME280;5778;47.856;12.154;2023-02-22T04:32:45;96140.31;;;1.62;100.00
11444;BME280;5778;47.856;12.154;2023-02-22T04:35:14;96135.47;;;1.46;100.00
11444;BME280;5778;47.856;12.154;2023-02-22T04:37:41;96130.22;;;1.33;100.00
11444;BME280;5778;47.856;12.154;2023-02-22T04:40:11;96138.22;;;0.99;100.00
11444;BME280;5778;47.856;12.154;2023-02-22T04:42:39;96140.47;;;1.08;100.00
11444;BME280;5778;47.856;12.154;2023-02-22T04:45:08;96131.84;;;1.21;100.00
11444;BME280;5778;47.856;12.154;2023-02-22T04:47:36;96127.78;;;1.12;100.00
11444;BME280;5778;47.856;12.154;2023-02-22T04:50:06;96131.06;;;1.33;100.00
11444;BME280;5778;47.856;12.154;2023-02-22T04:52:34;96124.56;;;1.23;100.00
11444;BME280;5778;47.856;12.154;2023-02-22T04:55:01;96131.25;;;1.32;100.00
11444;BME280;5778;47.856;12.154;2023-02-22T04:57:32;96131.84;;;1.34;100.00
11444;BME280;5778;47.856;12.154;2023-02-22T04:59:59;96124.34;;;1.11;100.00
11444;BME280;5778;47.856;12.154;2023-02-22T05:02:27;96124.81;;;1.34;100.00
11444;BME280;5778;47.856;12.154;2023-02-22T05:04:54;96119.53;;;1.28;100.00
11444;BME280;5778;47.856;12.154;2023-02-22T05:07:21;96126.59;;;1.27;100.00
11444;BME280;5778;47.856;12.154;2023-02-22T05:09:49;96120.88;;;0.98;100.00
11444;BME280;5778;47.856;12.154;2023-02-22T05:12:16;96120.75;;;1.12;100.00
11444;BME280;5778;47.856;12.154;2023-02-22T05:14:46;96119.28;;;1.03;100.00
11444;BME280;5778;47.856;12.154;2023-02-22T05:17:13;96124.53;;;1.03;100.00
11444;BME280;5778;47.856;12.154;2023-02-22T05:19:40;96121.31;;;1.08;100.00
11444;BME280;5778;47.856;12.154;2023-02-22T05:22:07;96122.16;;;1.21;100.00
11444;BME280;5778;47.856;12.154;2023-02-22T05:24:35;96123.38;;;1.25;100.00
11444;BME280;5778;47.856;12.154;2023-02-22T05:27:03;96120.50;;;1.14;100.00
11444;BME280;5778;47.856;12.154;2023-02-22T05:29:30;96120.06;;;0.91;100.00
11444;BME280;5778;47.856;12.154;2023-02-22T05:31:59;96115.88;;;0.96;100.00
11444;BME280;5778;47.856;12.154;2023-02-22T05:34:27;96121.06;;;0.90;100.00
11444;BME280;5778;47.856;12.154;2023-02-22T05:36:55;96121.66;;;0.92;100.00
11444;BME280;5778;47.856;12.154;2023-02-22T05:39:23;96115.19;;;0.75;100.00
11444;BME280;5778;47.856;12.154;2023-02-22T05:41:50;96112.38;;;0.76;100.00
11444;BME280;5778;47.856;12.154;2023-02-22T05:44:18;96111.41;;;0.90;100.00
11444;BME280;5778;47.856;12.154;2023-02-22T05:46:45;96118.44;;;0.90;100.00
11444;BME280;5778;47.856;12.154;2023-02-22T05:49:14;96118.88;;;1.00;100.00
11444;BME280;5778;47.856;12.154;2023-02-22T05:51:41;96123.31;;;0.93;100.00
11444;BME280;5778;47.856;12.154;2023-02-22T05:54:09;96119.69;;;0.94;100.00
11444;BME280;5778;47.856;12.154;2023-02-22T05:56:37;96124.91;;;0.94;100.00
11444;BME280;5778;47.856;12.154;2023-02-22T05:59:04;96107.97;;;0.90;100.00
11444;BME280;5778;47.856;12.154;2023-02-22T06:01:31;96116.03;;;0.82;100.00
11444;BME280;5778;47.856;12.154;2023-02-22T06:03:59;96118.97;;;0.59;100.00
11444;BME280;5778;47.856;12.154;2023-02-22T06:06:28;96120.81;;;0.72;100.00
11444;BME280;5778;47.856;12.154;2023-02-22T06:08:55;96121.19;;;0.69;100.00
11444;BME280;5778;47.856;12.154;2023-02-22T06:11:22;96123.75;;;0.49;100.00
11444;BME280;5778;47.856;12.154;2023-02-22T06:13:50;96126.41;;;0.62;100.00
11444;BME280;5778;47.856;12.154;2023-02-22T06:16:18;96126.75;;;0.53;100.00
11444;BME280;5778;47.856;12.154;2023-02-22T06:18:45;96127.72;;;0.45;100.00
11444;BME280;5778;47.856;12.154;2023-02-22T06:21:13;96127.97;;;0.50;100.00
11444;BME280;5778;47.856;12.154;2023-02-22T06:23:43;96137.63;;;0.50;100.00
11444;BME280;5778;47.856;12.154;2023-02-22T06:26:11;96132.00;;;0.53;100.00
11444;BME280;5778;47.856;12.154;2023-02-22T06:28:38;96136.00;;;0.49;100.00
11444;BME280;5778;47.856;12.154;2023-02-22T06:31:06;96142.91;;;0.63;100.00
11444;BME280;5778;47.856;12.154;2023-02-22T06:33:34;96136.84;;;0.56;100.00
11444;BME280;5778;47.856;12.154;2023-02-22T06:36:01;96135.84;;;0.57;100.00
11444;BME280;5778;47.856;12.154;2023-02-22T06:38:28;96148.19;;;0.69;100.00
11444;BME280;5778;47.856;12.154;2023-02-22T06:40:57;96151.47;;;0.84;100.00
11444;BME280;5778;47.856;12.154;2023-02-22T06:43:25;96155.53;;;1.00;100.00
11444;BME280;5778;47.856;12.154;2023-02-22T06:45:52;96153.94;;;1.05;100.00
11444;BME280;5778;47.856;12.154;2023-02-22T06:48:20;96144.88;;;1.08;100.00
11444;BME280;5778;47.856;12.154;2023-02-22T06:50:47;96158.00;;;1.27;100.00
11444;BME280;5778;47.856;12.154;2023-02-22T06:53:14;96158.44;;;1.31;100.00
11444;BME280;5778;47.856;12.154;2023-02-22T06:55:41;96150.41;;;1.52;100.00
11444;BME280;5778;47.856;12.154;2023-02-22T06:58:10;96156.84;;;1.43;100.00
11444;BME280;5778;47.856;12.154;2023-02-22T07:00:37;96151.81;;;1.54;100.00
11444;BME280;5778;47.856;12.154;2023-02-22T07:03:05;96145.16;;;1.58;100.00
11444;BME280;5778;47.856;12.154;2023-02-22T07:05:33;96158.09;;;1.66;100.00
11444;BME280;5778;47.856;12.154;2023-02-22T07:08:02;96155.06;;;1.76;100.00
11444;BME280;5778;47.856;12.154;2023-02-22T07:10:32;96156.47;;;1.72;100.00
11444;BME280;5778;47.856;12.154;2023-02-22T07:12:59;96158.91;;;1.80;100.00
11444;BME280;5778;47.856;12.154;2023-02-22T07:15:30;96160.91;;;2.04;100.00
11444;BME280;5778;47.856;12.154;2023-02-22T07:17:58;96163.50;;;2.17;100.00
11444;BME280;5778;47.856;12.154;2023-02-22T07:20:26;96159.44;;;2.40;100.00
11444;BME280;5778;47.856;12.154;2023-02-22T07:22:54;96149.72;;;2.54;100.00
11444;BME280;5778;47.856;12.154;2023-02-22T07:25:22;96152.91;;;2.69;100.00
11444;BME280;5778;47.856;12.154;2023-02-22T07:27:50;96159.69;;;2.83;100.00
11444;BME280;5778;47.856;12.154;2023-02-22T07:30:19;96157.22;;;3.01;100.00
11444;BME280;5778;47.856;12.154;2023-02-22T07:32:52;96153.56;;;3.02;100.00
11444;BME280;5778;47.856;12.154;2023-02-22T07:35:21;96148.59;;;3.25;100.00
11444;BME280;5778;47.856;12.154;2023-02-22T07:37:49;96154.38;;;3.40;100.00
11444;BME280;5778;47.856;12.154;2023-02-22T07:40:17;96148.00;;;3.54;100.00
11444;BME280;5778;47.856;12.154;2023-02-22T07:42:53;96142.06;;;3.40;100.00
11444;BME280;5778;47.856;12.154;2023-02-22T07:45:21;96143.19;;;3.51;100.00
11444;BME280;5778;47.856;12.154;2023-02-22T07:47:51;96142.56;;;3.80;100.00
11444;BME280;5778;47.856;12.154;2023-02-22T07:50:20;96131.09;;;3.99;100.00
11444;BME280;5778;47.856;12.154;2023-02-22T07:52:50;96130.31;;;4.16;100.00
11444;BME280;5778;47.856;12.154;2023-02-22T07:55:19;96130.03;;;4.24;100.00
11444;BME280;5778;47.856;12.154;2023-02-22T07:57:48;96134.22;;;4.32;100.00
11444;BME280;5778;47.856;12.154;2023-02-22T08:00:21;96123.19;;;4.41;100.00
11444;BME280;5778;47.856;12.154;2023-02-22T08:02:51;96120.94;;;4.63;100.00
11444;BME280;5778;47.856;12.154;2023-02-22T08:05:20;96116.75;;;4.73;100.00
11444;BME280;5778;47.856;12.154;2023-02-22T08:07:48;96116.69;;;4.80;100.00
11444;BME280;5778;47.856;12.154;2023-02-22T08:10:16;96120.19;;;4.92;100.00
11444;BME280;5778;47.856;12.154;2023-02-22T08:12:44;96113.41;;;5.14;100.00
11444;BME280;5778;47.856;12.154;2023-02-22T08:15:16;96107.94;;;5.27;100.00
11444;BME280;5778;47.856;12.154;2023-02-22T08:17:43;96100.31;;;5.37;100.00
11444;BME280;5778;47.856;12.154;2023-02-22T08:20:12;96100.84;;;5.68;100.00
11444;BME280;5778;47.856;12.154;2023-02-22T08:22:42;96097.25;;;5.92;100.00
11444;BME280;5778;47.856;12.154;2023-02-22T08:25:09;96090.94;;;6.05;100.00
11444;BME280;5778;47.856;12.154;2023-02-22T08:27:37;96091.88;;;6.22;100.00
11444;BME280;5778;47.856;12.154;2023-02-22T08:30:05;96088.50;;;6.49;100.00
11444;BME280;5778;47.856;12.154;2023-02-22T08:32:33;96082.16;;;6.73;100.00
11444;BME280;5778;47.856;12.154;2023-02-22T08:35:02;96091.88;;;6.84;100.00
11444;BME280;5778;47.856;12.154;2023-02-22T08:37:30;96084.50;;;6.98;100.00
11444;BME280;5778;47.856;12.154;2023-02-22T08:39:58;96083.38;;;7.10;100.00
11444;BME280;5778;47.856;12.154;2023-02-22T08:42:25;96077.19;;;7.16;100.00
11444;BME280;5778;47.856;12.154;2023-02-22T08:44:53;96080.81;;;6.99;100.00
11444;BME280;5778;47.856;12.154;2023-02-22T08:47:21;96073.38;;;6.84;100.00
11444;BME280;5778;47.856;12.154;2023-02-22T08:49:48;96078.88;;;7.22;100.00
11444;BME280;5778;47.856;12.154;2023-02-22T08:52:16;96081.50;;;7.50;100.00
11444;BME280;5778;47.856;12.154;2023-02-22T08:54:46;96076.44;;;7.49;100.00
11444;BME280;5778;47.856;12.154;2023-02-22T08:57:14;96071.41;;;7.64;100.00
11444;BME280;5778;47.856;12.154;2023-02-22T08:59:42;96073.56;;;8.00;100.00
11444;BME280;5778;47.856;12.154;2023-02-22T09:02:13;96070.91;;;8.33;100.00
11444;BME280;5778;47.856;12.154;2023-02-22T09:04:41;96066.44;;;8.55;100.00
11444;BME280;5778;47.856;12.154;2023-02-22T09:07:09;96071.41;;;8.68;100.00
11444;BME280;5778;47.856;12.154;2023-02-22T09:09:37;96071.59;;;8.83;100.00
11444;BME280;5778;47.856;12.154;2023-02-22T09:12:06;96058.31;;;9.04;100.00
11444;BME280;5778;47.856;12.154;2023-02-22T09:14:33;96067.03;;;9.00;100.00
11444;BME280;5778;47.856;12.154;2023-02-22T09:17:01;96063.91;;;9.08;100.00
11444;BME280;5778;47.856;12.154;2023-02-22T09:19:28;96061.22;;;9.03;100.00
11444;BME280;5778;47.856;12.154;2023-02-22T09:21:57;96052.63;;;9.17;100.00
11444;BME280;5778;47.856;12.154;2023-02-22T09:24:26;96059.34;;;9.25;100.00
11444;BME280;5778;47.856;12.154;2023-02-22T09:26:54;96048.94;;;9.45;100.00
11444;BME280;5778;47.856;12.154;2023-02-22T09:29:26;96057.78;;;9.55;100.00
11444;BME280;5778;47.856;12.154;2023-02-22T09:31:54;96052.41;;;9.77;100.00
11444;BME280;5778;47.856;12.154;2023-02-22T09:34:23;96052.59;;;10.02;100.00
11444;BME280;5778;47.856;12.154;2023-02-22T09:36:54;96046.44;;;10.28;100.00
11444;BME280;5778;47.856;12.154;2023-02-22T09:39:23;96046.59;;;10.11;100.00
11444;BME280;5778;47.856;12.154;2023-02-22T09:41:55;96036.44;;;10.45;100.00
11444;BME280;5778;47.856;12.154;2023-02-22T09:44:35;96038.50;;;10.89;100.00
11444;BME280;5778;47.856;12.154;2023-02-22T09:47:13;96036.69;;;11.05;100.00
11444;BME280;5778;47.856;12.154;2023-02-22T09:49:50;96030.63;;;11.14;100.00
11444;BME280;5778;47.856;12.154;2023-02-22T09:52:25;96032.75;;;11.17;100.00
11444;BME280;5778;47.856;12.154;2023-02-22T09:55:01;96036.53;;;11.41;100.00
11444;BME280;5778;47.856;12.154;2023-02-22T09:57:34;96029.88;;;11.54;100.00
11444;BME280;5778;47.856;12.154;2023-02-22T10:00:13;96028.09;;;11.74;100.00
11444;BME280;5778;47.856;12.154;2023-02-22T10:02:47;96023.50;;;11.55;100.00
11444;BME280;5778;47.856;12.154;2023-02-22T10:05:20;96017.06;;;11.31;100.00
11444;BME280;5778;47.856;12.154;2023-02-22T10:07:53;96022.84;;;11.03;100.00
11444;BME280;5778;47.856;12.154;2023-02-22T10:10:24;96018.41;;;11.33;100.00
11444;BME280;5778;47.856;12.154;2023-02-22T10:12:58;96018.22;;;11.80;100.00
11444;BME280;5778;47.856;12.154;2023-02-22T10:15:40;96018.72;;;12.12;100.00
11444;BME280;5778;47.856;12.154;2023-02-22T10:18:42;96017.63;;;12.43;100.00
11444;BME280;5778;47.856;12.154;2023-02-22T10:21:25;96012.19;;;12.68;100.00
11444;BME280;5778;47.856;12.154;2023-02-22T10:24:06;96011.59;;;12.91;100.00
11444;BME280;5778;47.856;12.154;2023-02-22T10:26:39;96010.94;;;13.19;100.00
11444;BME280;5778;47.856;12.154;2023-02-22T10:29:13;96006.75;;;13.03;100.00
11444;BME280;5778;47.856;12.154;2023-02-22T10:31:46;95999.69;;;13.22;100.00
11444;BME280;5778;47.856;12.154;2023-02-22T10:34:18;95999.25;;;13.10;100.00
11444;BME280;5778;47.856;12.154;2023-02-22T10:36:50;95998.91;;;13.60;100.00
11444;BME280;5778;47.856;12.154;2023-02-22T10:39:26;95993.81;;;13.97;95.79
11444;BME280;5778;47.856;12.154;2023-02-22T10:41:55;95989.91;;;13.51;100.00
11444;BME280;5778;47.856;12.154;2023-02-22T10:44:23;95989.34;;;14.16;99.57
11444;BME280;5778;47.856;12.154;2023-02-22T10:46:52;95987.59;;;14.35;98.15
11444;BME280;5778;47.856;12.154;2023-02-22T10:49:20;95982.38;;;14.48;96.82
11444;BME280;5778;47.856;12.154;2023-02-22T10:51:56;95979.81;;;14.85;88.80
11444;BME280;5778;47.856;12.154;2023-02-22T10:54:27;95981.88;;;15.30;90.20
11444;BME280;5778;47.856;12.154;2023-02-22T10:56:56;95976.81;;;15.29;90.01
11444;BME280;5778;47.856;12.154;2023-02-22T10:59:30;95979.97;;;15.36;85.70
11444;BME280;5778;47.856;12.154;2023-02-22T11:02:00;95968.00;;;15.28;85.35
11444;BME280;5778;47.856;12.154;2023-02-22T11:04:46;95974.13;;;15.66;80.20
11444;BME280;5778;47.856;12.154;2023-02-22T11:07:23;95967.63;;;15.35;89.67
11444;BME280;5778;47.856;12.154;2023-02-22T11:09:53;95961.59;;;15.06;74.42
11444;BME280;5778;47.856;12.154;2023-02-22T11:12:25;95958.97;;;14.59;81.15
11444;BME280;5778;47.856;12.154;2023-02-22T11:14:53;95957.25;;;14.16;91.68
11444;BME280;5778;47.856;12.154;2023-02-22T11:17:31;95956.72;;;14.19;87.90
11444;BME280;5778;47.856;12.154;2023-02-22T11:19:59;95950.53;;;14.23;91.28
11444;BME280;5778;47.856;12.154;2023-02-22T11:22:38;95946.84;;;14.43;86.40
11444;BME280;5778;47.856;12.154;2023-02-22T11:25:07;95947.03;;;14.93;88.23
11444;BME280;5778;47.856;12.154;2023-02-22T11:27:36;95942.34;;;15.22;75.35
11444;BME280;5778;47.856;12.154;2023-02-22T11:30:17;95940.19;;;15.43;66.92
11444;BME280;5778;47.856;12.154;2023-02-22T11:32:48;95934.00;;;15.61;58.81
11444;BME280;5778;47.856;12.154;2023-02-22T11:35:31;95926.94;;;15.83;64.86
11444;BME280;5778;47.856;12.154;2023-02-22T11:38:11;95917.47;;;16.04;59.98
11444;BME280;5778;47.856;12.154;2023-02-22T11:40:40;95917.22;;;16.01;58.48
11444;BME280;5778;47.856;12.154;2023-02-22T11:43:09;95917.13;;;16.06;55.60
11444;BME280;5778;47.856;12.154;2023-02-22T11:45:56;95919.03;;;15.92;54.63
11444;BME280;5778;47.856;12.154;2023-02-22T11:48:28;95907.09;;;15.98;57.17
11444;BME280;5778;47.856;12.154;2023-02-22T11:51:05;95914.09;;;15.48;53.02
11444;BME280;5778;47.856;12.154;2023-02-22T11:53:53;95916.09;;;15.75;55.98
11444;BME280;5778;47.856;12.154;2023-02-22T11:56:27;95907.28;;;15.56;52.70
11444;BME280;5778;47.856;12.154;2023-02-22T11:59:02;95902.25;;;15.68;54.96
11444;BME280;5778;47.856;12.154;2023-02-22T12:01:40;95900.38;;;16.14;55.14
11444;BME280;5778;47.856;12.154;2023-02-22T12:04:29;95901.44;;;16.45;53.07
11444;BME280;5778;47.856;12.154;2023-02-22T12:07:13;95891.31;;;16.10;47.66
11444;BME280;5778;47.856;12.154;2023-02-22T12:09:47;95897.50;;;16.24;48.53
11444;BME280;5778;47.856;12.154;2023-02-22T12:12:27;95890.69;;;16.45;47.27
11444;BME280;5778;47.856;12.154;2023-02-22T12:15:02;95887.00;;;16.54;46.41
11444;BME280;5778;47.856;12.154;2023-02-22T12:17:43;95886.66;;;16.83;43.51
11444;BME280;5778;47.856;12.154;2023-02-22T12:20:17;95879.59;;;17.22;44.05
11444;BME280;5778;47.856;12.154;2023-02-22T12:22:58;95888.69;;;16.64;42.80
11444;BME280;5778;47.856;12.154;2023-02-22T12:25:31;95885.28;;;15.59;44.03
11444;BME280;5778;47.856;12.154;2023-02-22T12:28:13;95883.13;;;15.74;43.63
11444;BME280;5778;47.856;12.154;2023-02-22T12:30:43;95881.75;;;15.08;44.28
11444;BME280;5778;47.856;12.154;2023-02-22T12:33:14;95878.78;;;15.09;42.73
11444;BME280;5778;47.856;12.154;2023-02-22T12:35:50;95882.03;;;15.25;42.13
11444;BME280;5778;47.856;12.154;2023-02-22T12:38:23;95877.97;;;15.27;42.46
11444;BME280;5778;47.856;12.154;2023-02-22T12:41:02;95872.53;;;15.32;42.36
11444;BME280;5778;47.856;12.154;2023-02-22T12:43:35;95868.81;;;15.79;42.14
11444;BME280;5778;47.856;12.154;2023-02-22T12:46:09;95863.41;;;16.11;40.56
11444;BME280;5778;47.856;12.154;2023-02-22T12:48:42;95869.28;;;16.13;38.89
11444;BME280;5778;47.856;12.154;2023-02-22T12:51:20;95857.25;;;15.97;39.49
11444;BME280;5778;47.856;12.154;2023-02-22T12:53:55;95859.25;;;16.32;39.31
11444;BME280;5778;47.856;12.154;2023-02-22T12:56:30;95849.13;;;16.56;39.54
11444;BME280;5778;47.856;12.154;2023-02-22T12:59:03;95845.56;;;16.47;39.62
11444;BME280;5778;47.856;12.154;2023-02-22T13:01:36;95841.84;;;16.16;39.76
11444;BME280;5778;47.856;12.154;2023-02-22T13:04:05;95847.91;;;16.35;40.41
11444;BME280;5778;47.856;12.154;2023-02-22T13:06:41;95839.34;;;16.60;41.90
11444;BME280;5778;47.856;12.154;2023-02-22T13:09:32;95842.00;;;16.73;41.88
11444;BME280;5778;47.856;12.154;2023-02-22T13:12:06;95836.69;;;16.95;42.06
11444;BME280;5778;47.856;12.154;2023-02-22T13:14:48;95833.34;;;17.78;42.11
11444;BME280;5778;47.856;12.154;2023-02-22T13:17:23;95831.19;;;18.27;42.51
11444;BME280;5778;47.856;12.154;2023-02-22T13:19:57;95832.56;;;18.55;40.81
11444;BME280;5778;47.856;12.154;2023-02-22T13:22:33;95822.16;;;17.54;40.32
11444;BME280;5778;47.856;12.154;2023-02-22T13:25:07;95823.84;;;17.28;41.86
11444;BME280;5778;47.856;12.154;2023-02-22T13:27:40;95823.25;;;16.60;43.41